createdAt,value
2022-11-05T00:00:38.936Z,7.30
2022-11-05T00:03:27.432Z,7.30
2022-11-05T00:06:19.678Z,7.40
2022-11-05T00:09:05.581Z,7.60
2022-11-05T00:11:51.540Z,7.80
2022-11-05T00:14:37.452Z,8.00
2022-11-05T00:17:06.080Z,8.10
2022-11-05T00:19:36.021Z,8.00
2022-11-05T00:22:21.108Z,8.00
2022-11-05T00:25:15.731Z,7.90
2022-11-05T00:27:46.161Z,8.00
2022-11-05T00:30:17.269Z,8.00
2022-11-05T00:32:47.076Z,8.00
2022-11-05T00:35:18.309Z,8.00
2022-11-05T00:37:50.008Z,8.00
2022-11-05T00:40:19.650Z,7.90
2022-11-05T00:43:05.360Z,7.90
2022-11-05T00:45:34.049Z,7.90
2022-11-05T00:48:19.949Z,7.90
2022-11-05T00:50:49.890Z,7.80
2022-11-05T00:53:18.481Z,7.80
2022-11-05T00:55:48.029Z,7.80
2022-11-05T00:58:18.140Z,7.80
2022-11-05T01:00:51.840Z,7.80
2022-11-05T01:03:23.343Z,7.90
2022-11-05T01:05:56.500Z,7.90
2022-11-05T01:08:27.407Z,7.90
2022-11-05T01:10:57.524Z,7.90
2022-11-05T01:13:27.961Z,7.90
2022-11-05T01:15:57.569Z,8.00
2022-11-05T01:18:26.638Z,8.00
2022-11-05T01:20:56.630Z,7.90
2022-11-05T01:23:25.301Z,7.80
2022-11-05T01:25:53.799Z,7.90
2022-11-05T01:28:22.505Z,7.80
2022-11-05T01:30:57.059Z,7.80
2022-11-05T01:33:25.709Z,7.50
2022-11-05T01:35:55.653Z,7.40
2022-11-05T01:38:24.180Z,7.40
2022-11-05T01:40:53.311Z,7.20
2022-11-05T01:43:23.972Z,7.20
2022-11-05T01:45:56.451Z,7.10
2022-11-05T01:48:27.491Z,7.10
2022-11-05T01:51:00.463Z,7.00
2022-11-05T01:53:31.212Z,6.90
2022-11-05T01:56:04.401Z,6.80
2022-11-05T01:58:37.356Z,6.70
2022-11-05T02:01:05.660Z,6.70
2022-11-05T02:03:34.381Z,6.70
2022-11-05T02:06:05.289Z,6.70
2022-11-05T02:08:48.311Z,6.60
2022-11-05T02:11:19.648Z,6.50
2022-11-05T02:13:49.728Z,6.40
2022-11-05T02:16:31.901Z,6.30
2022-11-05T02:19:09.225Z,6.30
2022-11-05T02:22:14.240Z,6.20
2022-11-05T02:24:57.891Z,6.10
2022-11-05T02:28:02.641Z,6.20
2022-11-05T02:30:43.156Z,6.20
2022-11-05T02:33:32.538Z,6.30
2022-11-05T02:36:23.600Z,6.30
2022-11-05T02:39:01.841Z,6.30
2022-11-05T02:41:43.221Z,6.20
2022-11-05T02:44:21.591Z,6.20
2022-11-05T02:46:58.550Z,6.20
2022-11-05T02:49:40.940Z,6.10
2022-11-05T02:52:16.481Z,6.10
2022-11-05T02:54:51.151Z,6.10
2022-11-05T02:57:22.235Z,6.20
2022-11-05T02:59:50.819Z,6.20
2022-11-05T03:02:20.948Z,6.30
2022-11-05T03:04:49.590Z,6.30
2022-11-05T03:07:29.901Z,6.30
2022-11-05T03:10:10.479Z,6.20
2022-11-05T03:12:48.824Z,6.20
2022-11-05T03:15:27.352Z,6.20
2022-11-05T03:18:06.444Z,6.10
2022-11-05T03:20:39.995Z,6.10
2022-11-05T03:23:13.862Z,6.00
2022-11-05T03:25:47.341Z,6.00
2022-11-05T03:28:18.473Z,6.00
2022-11-05T03:30:47.323Z,6.00
2022-11-05T03:33:20.631Z,6.00
2022-11-05T03:35:54.063Z,6.00
2022-11-05T03:38:25.800Z,6.00
2022-11-05T03:40:58.810Z,5.90
2022-11-05T03:43:32.051Z,5.90
2022-11-05T03:46:04.509Z,5.80
2022-11-05T03:48:40.244Z,5.80
2022-11-05T03:51:13.972Z,5.80
2022-11-05T03:53:48.012Z,5.80
2022-11-05T03:56:22.023Z,5.80
2022-11-05T03:58:56.057Z,5.80
2022-11-05T04:01:27.831Z,5.90
2022-11-05T04:03:58.098Z,5.90
2022-11-05T04:06:44.174Z,5.90
2022-11-05T04:09:33.149Z,6.00
2022-11-05T04:12:19.298Z,6.10
2022-11-05T04:14:47.848Z,6.20
2022-11-05T04:17:15.401Z,6.30
2022-11-05T04:20:03.691Z,6.20
2022-11-05T04:22:51.600Z,6.10
2022-11-05T04:25:20.960Z,6.20
2022-11-05T04:27:49.944Z,6.20
2022-11-05T04:30:18.645Z,6.10
2022-11-05T04:33:04.066Z,6.10
2022-11-05T04:35:39.577Z,6.00
2022-11-05T04:38:10.396Z,5.90
2022-11-05T04:40:39.790Z,5.90
2022-11-05T04:43:14.556Z,5.90
2022-11-05T04:45:44.492Z,6.00
2022-11-05T04:48:13.074Z,6.00
2022-11-05T04:50:42.962Z,5.90
2022-11-05T04:53:11.727Z,5.90
2022-11-05T04:55:40.441Z,5.90
2022-11-05T04:58:10.001Z,5.80
2022-11-05T05:00:38.644Z,5.80
2022-11-05T05:03:07.250Z,5.80
2022-11-05T05:05:35.719Z,5.80
2022-11-05T05:08:06.391Z,5.80
2022-11-05T05:10:35.444Z,5.90
2022-11-05T05:13:04.008Z,5.90
2022-11-05T05:15:32.488Z,6.00
2022-11-05T05:18:00.999Z,6.10
2022-11-05T05:20:47.392Z,6.30
2022-11-05T05:23:17.407Z,6.30
2022-11-05T05:25:46.061Z,6.40
2022-11-05T05:28:14.896Z,6.50
2022-11-05T05:30:43.326Z,6.50
2022-11-05T05:33:12.039Z,6.40
2022-11-05T05:35:40.757Z,6.40
2022-11-05T05:38:09.328Z,6.40
2022-11-05T05:40:39.204Z,6.40
2022-11-05T05:43:07.832Z,6.40
2022-11-05T05:45:36.934Z,6.40
2022-11-05T05:48:06.056Z,6.40
2022-11-05T05:50:34.597Z,6.40
2022-11-05T05:53:03.156Z,6.40
2022-11-05T05:55:31.656Z,6.30
2022-11-05T05:58:01.548Z,6.30
2022-11-05T06:00:30.196Z,6.30
2022-11-05T06:02:58.755Z,6.30
2022-11-05T06:05:27.377Z,6.20
2022-11-05T06:07:59.489Z,6.20
2022-11-05T06:10:28.036Z,6.10
2022-11-05T06:12:56.627Z,6.20
2022-11-05T06:15:29.425Z,6.30
2022-11-05T06:18:00.259Z,6.30
2022-11-05T06:20:28.767Z,6.40
2022-11-05T06:22:57.638Z,6.50
2022-11-05T06:25:26.677Z,6.50
2022-11-05T06:27:55.309Z,6.50
2022-11-05T06:30:25.248Z,6.60
2022-11-05T06:32:56.787Z,6.50
2022-11-05T06:35:25.256Z,6.40
2022-11-05T06:37:53.735Z,6.30
2022-11-05T06:40:22.294Z,6.20
2022-11-05T06:42:54.024Z,6.20
2022-11-05T06:45:23.015Z,6.10
2022-11-05T06:47:58.714Z,6.10
2022-11-05T06:50:28.336Z,6.10
2022-11-05T06:52:58.236Z,6.10
2022-11-05T06:55:28.932Z,6.10
2022-11-05T06:57:57.938Z,6.20
2022-11-05T07:00:26.564Z,6.10
2022-11-05T07:02:56.043Z,6.20
2022-11-05T07:05:26.655Z,6.20
2022-11-05T07:07:55.265Z,6.10
2022-11-05T07:10:23.779Z,6.10
2022-11-05T07:12:52.336Z,6.10
2022-11-05T07:15:28.412Z,6.30
2022-11-05T07:17:59.886Z,6.40
2022-11-05T07:20:33.949Z,6.50
2022-11-05T07:23:04.215Z,6.70
2022-11-05T07:25:33.817Z,6.90
2022-11-05T07:28:02.735Z,7.00
2022-11-05T07:30:33.316Z,7.20
2022-11-05T07:33:02.089Z,7.40
2022-11-05T07:35:32.128Z,7.50
2022-11-05T07:38:00.846Z,7.60
2022-11-05T07:40:30.424Z,7.80
2022-11-05T07:43:00.280Z,8.00
2022-11-05T07:45:30.299Z,8.20
2022-11-05T07:48:00.692Z,8.30
2022-11-05T07:50:33.227Z,8.50
2022-11-05T07:53:02.547Z,8.60
2022-11-05T07:55:31.861Z,8.60
2022-11-05T07:58:00.405Z,8.70
2022-11-05T08:00:30.117Z,8.80
2022-11-05T08:03:06.722Z,8.80
2022-11-05T08:05:40.365Z,9.00
2022-11-05T08:08:10.057Z,9.20
2022-11-05T08:10:39.095Z,9.30
2022-11-05T08:13:09.008Z,9.40
2022-11-05T08:15:37.816Z,9.50
2022-11-05T08:18:08.684Z,9.60
2022-11-05T08:20:38.886Z,9.80
2022-11-05T08:23:07.939Z,10.00
2022-11-05T08:25:37.115Z,10.10
2022-11-05T08:28:07.945Z,10.40
2022-11-05T08:30:36.895Z,10.60
2022-11-05T08:33:08.344Z,10.70
2022-11-05T08:35:39.630Z,10.70
2022-11-05T08:38:09.687Z,10.90
2022-11-05T08:40:38.946Z,11.00
2022-11-05T08:43:10.184Z,11.00
2022-11-05T08:45:39.463Z,10.90
2022-11-05T08:48:09.846Z,10.90
2022-11-05T08:50:40.575Z,10.90
2022-11-05T08:53:10.754Z,11.00
2022-11-05T08:55:39.926Z,11.10
2022-11-05T08:58:12.689Z,11.20
2022-11-05T09:00:41.677Z,11.30
2022-11-05T09:03:11.063Z,11.20
2022-11-05T09:05:43.112Z,11.10
2022-11-05T09:08:13.304Z,11.00
2022-11-05T09:10:43.098Z,10.90
2022-11-05T09:13:17.888Z,11.10
2022-11-05T09:15:46.768Z,11.60
2022-11-05T09:18:15.814Z,11.80
2022-11-05T09:20:46.314Z,12.10
2022-11-05T09:23:16.022Z,12.40
2022-11-05T09:25:45.040Z,12.80
2022-11-05T09:28:17.052Z,12.70
2022-11-05T09:30:48.177Z,13.00
2022-11-05T09:33:17.526Z,14.50
2022-11-05T09:35:47.620Z,16.40
2022-11-05T09:38:16.349Z,17.90
2022-11-05T09:40:55.935Z,19.10
2022-11-05T09:43:31.735Z,20.00
2022-11-05T09:46:05.745Z,20.80
2022-11-05T09:48:35.429Z,21.70
2022-11-05T09:51:06.936Z,22.50
2022-11-05T09:53:41.098Z,22.70
2022-11-05T09:56:21.435Z,23.40
2022-11-05T09:58:53.563Z,24.10
2022-11-05T10:01:26.043Z,24.70
2022-11-05T10:03:58.271Z,25.10
2022-11-05T10:06:29.157Z,24.90
2022-11-05T10:09:04.529Z,25.10
2022-11-05T10:11:39.078Z,25.20
2022-11-05T10:14:15.306Z,24.80
2022-11-05T10:16:49.874Z,24.50
2022-11-05T10:19:24.779Z,24.60
2022-11-05T10:22:06.501Z,24.60
2022-11-05T10:24:35.946Z,23.20
2022-11-05T10:27:07.029Z,22.70
2022-11-05T10:29:36.865Z,23.20
2022-11-05T10:32:08.025Z,24.30
2022-11-05T10:34:39.614Z,24.60
2022-11-05T10:37:11.984Z,25.00
2022-11-05T10:39:40.966Z,25.60
2022-11-05T10:42:33.910Z,26.10
2022-11-05T10:45:11.898Z,26.50
2022-11-05T10:47:51.567Z,26.50
2022-11-05T10:50:22.886Z,26.60
2022-11-05T10:53:00.054Z,26.70
2022-11-05T10:55:32.336Z,27.20
2022-11-05T10:58:13.079Z,27.50
2022-11-05T11:00:41.768Z,27.70
2022-11-05T11:03:35.256Z,27.70
2022-11-05T11:06:07.872Z,27.30
2022-11-05T11:08:38.999Z,27.20
2022-11-05T11:11:12.813Z,27.30
2022-11-05T11:13:52.786Z,27.60
2022-11-05T11:16:24.106Z,27.60
2022-11-05T11:18:55.758Z,27.30
2022-11-05T11:21:28.739Z,27.20
2022-11-05T11:24:00.637Z,27.60
2022-11-05T11:26:32.336Z,27.60
2022-11-05T11:29:03.089Z,27.40
2022-11-05T11:31:33.004Z,27.30
2022-11-05T11:34:04.095Z,26.90
2022-11-05T11:36:39.760Z,26.90
2022-11-05T11:39:17.306Z,26.40
2022-11-05T11:41:47.607Z,25.90
2022-11-05T11:44:19.788Z,26.20
2022-11-05T11:46:51.387Z,26.20
2022-11-05T11:49:34.168Z,26.20
2022-11-05T11:52:04.435Z,26.40
2022-11-05T11:54:35.775Z,26.50
2022-11-05T11:57:05.016Z,26.50
2022-11-05T12:00:06.656Z,26.00
2022-11-05T12:02:57.326Z,25.00
2022-11-05T12:05:46.312Z,23.20
2022-11-05T12:08:33.026Z,21.70
2022-11-05T12:11:08.455Z,20.60
2022-11-05T12:14:04.504Z,19.70
2022-11-05T12:16:55.177Z,18.90
2022-11-05T12:19:37.294Z,18.20
2022-11-05T12:22:17.377Z,17.70
2022-11-05T12:25:07.238Z,17.40
2022-11-05T12:27:48.527Z,17.00
2022-11-05T12:30:18.937Z,16.70
2022-11-05T12:33:14.030Z,16.80
2022-11-05T12:35:57.799Z,17.10
2022-11-05T12:38:40.335Z,17.10
2022-11-05T12:41:18.278Z,17.10
2022-11-05T12:43:59.317Z,16.90
2022-11-05T12:46:35.536Z,16.80
2022-11-05T12:49:22.826Z,16.60
2022-11-05T12:52:01.524Z,16.60
2022-11-05T12:54:43.539Z,16.50
2022-11-05T12:57:14.908Z,16.20
2022-11-05T12:59:50.806Z,15.80
2022-11-05T13:02:26.969Z,15.60
2022-11-05T13:05:00.100Z,15.60
2022-11-05T13:07:33.049Z,15.40
2022-11-05T13:10:04.848Z,15.50
2022-11-05T13:12:39.437Z,15.50
2022-11-05T13:15:20.858Z,15.30
2022-11-05T13:17:54.863Z,15.30
2022-11-05T13:20:26.634Z,15.20
2022-11-05T13:23:00.086Z,15.30
2022-11-05T13:25:31.579Z,15.30
2022-11-05T13:28:08.211Z,15.20
2022-11-05T13:30:43.245Z,15.10
2022-11-05T13:33:18.050Z,15.00
2022-11-05T13:35:50.001Z,15.10
2022-11-05T13:38:42.627Z,15.20
2022-11-05T13:41:24.726Z,15.30
2022-11-05T13:44:14.956Z,15.30
2022-11-05T13:47:21.817Z,15.10
2022-11-05T13:50:17.706Z,15.10
2022-11-05T13:53:03.306Z,15.00
2022-11-05T13:56:04.193Z,15.00
2022-11-05T13:59:05.518Z,15.00
2022-11-05T14:01:46.926Z,14.80
2022-11-05T14:04:31.740Z,14.70
2022-11-05T14:07:13.280Z,14.60
2022-11-05T14:09:44.561Z,14.50
2022-11-05T14:12:22.864Z,14.40
2022-11-05T14:14:59.030Z,14.30
2022-11-05T14:17:34.286Z,14.20
2022-11-05T14:20:39.630Z,14.20
2022-11-05T14:23:48.945Z,14.10
2022-11-05T14:26:21.605Z,13.90
2022-11-05T14:28:53.226Z,13.70
2022-11-05T14:34:50.239Z,13.40
2022-11-05T14:37:43.196Z,13.20
2022-11-05T14:40:31.647Z,13.10
2022-11-05T14:43:03.686Z,13.10
2022-11-05T14:45:34.387Z,13.00
2022-11-05T14:48:07.247Z,13.00
2022-11-05T14:50:39.966Z,13.00
2022-11-05T14:53:33.117Z,12.90
2022-11-05T14:56:05.855Z,12.90
2022-11-05T14:58:38.407Z,12.80
2022-11-05T15:01:10.864Z,12.70
2022-11-05T15:04:02.870Z,12.70
2022-11-05T15:06:34.408Z,12.60
2022-11-05T15:09:20.316Z,12.60
2022-11-05T15:12:03.966Z,12.60
2022-11-05T15:14:36.236Z,12.50
2022-11-05T15:17:17.615Z,12.50
2022-11-05T15:19:47.483Z,12.50
2022-11-05T15:22:28.176Z,12.50
2022-11-05T15:24:59.282Z,12.50
2022-11-05T15:27:43.417Z,12.50
2022-11-05T15:30:20.244Z,12.40
2022-11-05T15:32:49.769Z,12.40
2022-11-05T15:35:22.212Z,12.40
2022-11-05T15:37:58.855Z,12.30
2022-11-05T15:40:34.536Z,12.30
2022-11-05T15:43:19.829Z,12.20
2022-11-05T15:46:03.868Z,12.20
2022-11-05T15:48:33.422Z,12.20
2022-11-05T15:51:02.254Z,12.10
2022-11-05T15:54:23.826Z,12.10
2022-11-05T15:56:53.166Z,12.10
2022-11-05T15:59:24.157Z,12.20
2022-11-05T16:01:57.081Z,12.20
2022-11-05T16:04:27.177Z,12.10
2022-11-05T16:06:59.842Z,12.10
2022-11-05T16:09:30.846Z,12.10
2022-11-05T16:12:26.443Z,12.10
2022-11-05T16:15:00.617Z,12.10
2022-11-05T16:17:33.579Z,12.00
2022-11-05T16:20:02.152Z,12.00
2022-11-05T16:22:46.336Z,12.00
2022-11-05T16:25:39.706Z,11.90
2022-11-05T16:28:24.158Z,11.90
2022-11-05T16:30:59.504Z,11.90
2022-11-05T16:33:33.546Z,11.90
2022-11-05T16:36:02.600Z,11.90
2022-11-05T16:38:31.798Z,11.90
2022-11-05T16:41:00.975Z,11.90
2022-11-05T16:43:31.596Z,11.80
2022-11-05T16:46:02.520Z,11.80
2022-11-05T16:48:31.713Z,11.80
2022-11-05T16:51:00.704Z,11.80
2022-11-05T16:53:30.181Z,11.70
2022-11-05T16:55:58.807Z,11.70
2022-11-05T16:58:28.556Z,11.70
2022-11-05T17:01:03.716Z,11.70
2022-11-05T17:03:32.786Z,11.60
2022-11-05T17:06:01.859Z,11.60
2022-11-05T17:08:30.831Z,11.50
2022-11-05T17:10:59.509Z,11.40
2022-11-05T17:13:28.928Z,11.40
2022-11-05T17:15:59.326Z,11.30
2022-11-05T17:18:28.233Z,11.30
2022-11-05T17:20:57.978Z,11.30
2022-11-05T17:23:29.050Z,11.30
2022-11-05T17:26:02.872Z,11.30
2022-11-05T17:28:33.030Z,11.30
2022-11-05T17:31:06.078Z,11.40
2022-11-05T17:33:34.748Z,11.40
2022-11-05T17:36:09.058Z,11.50
2022-11-05T17:38:38.568Z,11.50
2022-11-05T17:41:12.799Z,11.50
2022-11-05T17:43:42.426Z,11.60
2022-11-05T17:46:15.166Z,11.50
2022-11-05T17:48:45.545Z,11.60
2022-11-05T17:51:17.450Z,11.60
2022-11-05T17:53:47.754Z,11.60
2022-11-05T17:56:27.491Z,11.60
2022-11-05T17:59:02.324Z,11.50
2022-11-05T18:01:36.040Z,11.50
2022-11-05T18:04:08.994Z,11.50
2022-11-05T18:06:39.191Z,11.50
2022-11-05T18:09:10.501Z,11.50
2022-11-05T18:11:39.852Z,11.50
2022-11-05T18:14:09.777Z,11.50
2022-11-05T18:16:40.694Z,11.50
2022-11-05T18:19:09.517Z,11.40
2022-11-05T18:21:39.066Z,11.50
2022-11-05T18:24:08.694Z,11.40
2022-11-05T18:26:37.640Z,11.50
2022-11-05T18:29:08.257Z,11.40
2022-11-05T18:31:37.223Z,11.50
2022-11-05T18:34:07.977Z,11.50
2022-11-05T18:36:37.616Z,11.40
2022-11-05T18:39:07.744Z,11.40
2022-11-05T18:41:36.675Z,11.40
2022-11-05T18:44:06.421Z,11.40
2022-11-05T18:46:57.171Z,11.40
2022-11-05T18:49:27.041Z,11.40
2022-11-05T18:51:56.005Z,11.40
2022-11-05T18:54:25.338Z,11.40
2022-11-05T18:56:54.667Z,11.40
2022-11-05T18:59:37.665Z,11.40
2022-11-05T19:02:07.463Z,11.30
2022-11-05T19:04:39.120Z,11.30
2022-11-05T19:07:09.690Z,11.30
2022-11-05T19:09:40.223Z,11.30
2022-11-05T19:12:09.452Z,11.30
2022-11-05T19:14:38.987Z,11.30
2022-11-05T19:17:08.517Z,11.30
2022-11-05T19:19:39.363Z,11.30
2022-11-05T19:22:08.424Z,11.30
2022-11-05T19:24:37.726Z,11.30
2022-11-05T19:27:07.186Z,11.30
2022-11-05T19:29:36.356Z,11.30
2022-11-05T19:32:06.798Z,11.30
2022-11-05T19:34:38.520Z,11.30
2022-11-05T19:37:08.511Z,11.30
2022-11-05T19:39:39.022Z,11.20
2022-11-05T19:42:08.479Z,11.30
2022-11-05T19:44:37.510Z,11.20
2022-11-05T19:47:06.719Z,11.20
2022-11-05T19:49:36.020Z,11.20
2022-11-05T19:52:07.034Z,11.20
2022-11-05T19:54:36.795Z,11.20
2022-11-05T19:57:06.645Z,11.20
2022-11-05T19:59:35.736Z,11.20
2022-11-05T20:02:04.983Z,11.20
2022-11-05T20:04:34.505Z,11.20
2022-11-05T20:07:03.690Z,11.10
2022-11-05T20:09:34.094Z,11.10
2022-11-05T20:12:03.395Z,11.10
2022-11-05T20:14:32.600Z,11.10
2022-11-05T20:17:01.716Z,11.10
2022-11-05T20:19:30.342Z,11.10
2022-11-05T20:22:01.513Z,11.10
2022-11-05T20:24:30.294Z,11.10
2022-11-05T20:27:00.308Z,11.10
2022-11-05T20:29:35.086Z,11.00
2022-11-05T20:32:05.231Z,11.00
2022-11-05T20:34:35.228Z,11.00
2022-11-05T20:37:04.256Z,11.00
2022-11-05T20:39:32.824Z,11.00
2022-11-05T20:42:02.968Z,11.00
2022-11-05T20:44:31.495Z,11.00
2022-11-05T20:47:03.106Z,11.00
2022-11-05T20:49:31.686Z,11.00
2022-11-05T20:52:00.199Z,11.00
2022-11-05T20:54:29.052Z,11.00
2022-11-05T20:56:57.706Z,11.00
2022-11-05T20:59:27.736Z,10.90
2022-11-05T21:01:56.381Z,11.00
2022-11-05T21:04:25.497Z,10.90
2022-11-05T21:06:54.039Z,10.90
2022-11-05T21:09:22.677Z,11.00
2022-11-05T21:12:08.486Z,10.90
2022-11-05T21:14:38.706Z,10.90
2022-11-05T21:17:08.486Z,10.90
2022-11-05T21:19:37.728Z,10.90
2022-11-05T21:22:07.310Z,10.90
2022-11-05T21:24:37.247Z,10.90
2022-11-05T21:27:05.934Z,10.90
2022-11-05T21:29:34.417Z,10.90
2022-11-05T21:32:04.494Z,10.90
2022-11-05T21:34:33.017Z,10.90
2022-11-05T21:37:01.794Z,10.90
2022-11-05T21:39:30.315Z,10.90
2022-11-05T21:42:01.626Z,10.90
2022-11-05T21:44:30.207Z,10.90
2022-11-05T21:46:59.181Z,10.80
2022-11-05T21:49:29.146Z,10.80
2022-11-05T21:52:14.941Z,10.70
2022-11-05T21:55:00.873Z,10.60
2022-11-05T21:57:46.916Z,10.60
2022-11-05T22:00:15.917Z,10.50
2022-11-05T22:02:44.585Z,10.50
2022-11-05T22:05:15.674Z,10.40
2022-11-05T22:07:44.514Z,10.40
2022-11-05T22:10:16.503Z,10.40
2022-11-05T22:12:45.712Z,10.30
2022-11-05T22:15:14.499Z,10.30
2022-11-05T22:17:46.878Z,10.20
2022-11-05T22:20:17.949Z,10.10
2022-11-05T22:22:46.535Z,10.20
2022-11-05T22:25:15.657Z,10.20
2022-11-05T22:27:44.575Z,10.10
2022-11-05T22:30:14.807Z,10.20
2022-11-05T22:32:43.423Z,10.20
2022-11-05T22:35:11.946Z,10.10
2022-11-05T22:37:41.926Z,10.10
2022-11-05T22:40:11.165Z,10.10
2022-11-05T22:42:39.703Z,10.10
2022-11-05T22:45:09.139Z,10.10
2022-11-05T22:47:37.853Z,10.10
2022-11-05T22:50:07.376Z,10.10
2022-11-05T22:52:35.848Z,10.10
2022-11-05T22:55:06.501Z,10.10
2022-11-05T22:57:35.057Z,10.10
2022-11-05T23:00:04.863Z,10.10
2022-11-05T23:02:33.599Z,10.20
2022-11-05T23:05:02.289Z,10.20
2022-11-05T23:07:48.136Z,10.20
2022-11-05T23:10:35.405Z,10.20
2022-11-05T23:13:04.506Z,10.20
2022-11-05T23:15:50.366Z,10.10
2022-11-05T23:18:36.366Z,10.20
2022-11-05T23:21:23.264Z,10.20
2022-11-05T23:24:07.026Z,10.20
2022-11-05T23:26:51.326Z,10.20
2022-11-05T23:29:20.458Z,10.30
2022-11-05T23:32:06.362Z,10.20
2022-11-05T23:34:34.876Z,10.20
2022-11-05T23:37:23.184Z,10.30
2022-11-05T23:39:52.013Z,10.30
2022-11-05T23:42:38.943Z,10.30
2022-11-05T23:45:25.873Z,10.30
2022-11-05T23:48:12.395Z,10.30
2022-11-05T23:50:41.395Z,10.30
2022-11-05T23:53:10.857Z,10.40
2022-11-05T23:55:39.675Z,10.40
2022-11-05T23:58:10.380Z,10.40
